テヘラン の空港の天気 - METARとTAF

メヘラーバード国際空港(テヘラン) ( OIII / THR ) - イラン テヘラン
飛行場実況気象(Metar)
観測時間12/10 08:30 IRST (12/10 05:00 UTC)
風向・風速西 2m/s
視程10km以上
天気現象
少しの雲 雲底高度 2740m
気温7℃
湿度66%
気圧1019hPa
METAROIII 100500Z 26004KT 9999 FEW090 07/01 Q1019 A3010
過去の天気等 Google飛行場航空写真 Wunderground天気予報

過去48時間のMETAR

飛行場予報(TAF)
発表時間: 12/10 02:30 IRST (12/09 23:00 UTC)
予報対象時間: 10日3時 IRST ~ 11日9時 IRST
風向・風速西 4m/s
少しの雲 雲底高度 1220m
10日15時 IRST ~ 10日21時 IRST に一時的に
風向・風速北西 8m/s
視程7000m
少しの雲 雲底高度 910m
少しの積乱雲 雲底高度 1070m
全天の4割程度の雲 雲底高度 3050m
TAF OIII 092300Z 1000/1106 27004MPS FEW040
TEMPO 1012/1018 32008MPS 7000 FEW030 FEW035CB SCT100